Time;durP1;ratioP1;P1;durP2;ratioP2;P2;SDS_P1;SDS_P2;PMS_P1;PMS_P2;Temp;Humidity;BMP_temperature;BMP_pressure;BME280_temperature;BME280_humidity;BME280_pressure;Samples;Min_cycle;Max_cycle;Signal;HPM_P1;HPM_P2
2021/08/23 00:00:57;;;;;;;7.38;5.75;;;17.60;99.90;;;;;;5005015;28;20200;-91
2021/08/23 00:03:25;;;;;;;8.32;6.53;;;17.60;99.90;;;;;;4996230;28;20231;-91
2021/08/23 00:05:51;;;;;;;8.00;5.88;;;17.60;99.90;;;;;;4996369;28;20619;-93
2021/08/23 00:08:18;;;;;;;9.45;6.25;;;17.70;99.90;;;;;;4995774;28;20243;-90
2021/08/23 00:10:45;;;;;;;7.60;6.30;;;17.70;99.90;;;;;;4995832;28;20204;-89
2021/08/23 00:13:13;;;;;;;8.05;6.10;;;17.70;99.90;;;;;;4995768;28;20219;-89
2021/08/23 00:15:41;;;;;;;8.82;6.10;;;17.60;99.90;;;;;;4994489;28;20219;-90
2021/08/23 00:18:08;;;;;;;10.70;5.90;;;17.60;99.90;;;;;;4990810;28;20262;-89
2021/08/23 00:20:43;;;;;;;8.48;6.13;;;17.60;99.90;;;;;;5005625;28;20210;-91
2021/08/23 00:23:12;;;;;;;9.95;6.05;;;17.60;99.90;;;;;;5012285;28;20217;-85
2021/08/23 00:25:39;;;;;;;6.90;5.43;;;17.60;99.90;;;;;;5013085;28;20195;-90
2021/08/23 00:28:08;;;;;;;8.75;6.25;;;17.60;99.90;;;;;;5001232;28;20647;-89
2021/08/23 00:30:36;;;;;;;7.13;5.68;;;17.60;99.90;;;;;;4995361;28;20209;-87
2021/08/23 00:33:04;;;;;;;6.88;5.10;;;17.60;99.90;;;;;;4993883;28;20649;-90
2021/08/23 00:35:31;;;;;;;8.20;5.45;;;17.60;99.90;;;;;;4994661;28;20192;-88
2021/08/23 00:37:59;;;;;;;6.68;4.90;;;17.60;99.90;;;;;;4994490;28;20476;-85
2021/08/23 00:40:27;;;;;;;10.00;5.22;;;17.60;99.90;;;;;;5011026;28;20497;-86
2021/08/23 00:42:54;;;;;;;8.73;5.10;;;17.60;99.90;;;;;;5014172;28;20211;-87
2021/08/23 00:45:21;;;;;;;5.70;4.45;;;17.60;99.90;;;;;;5013332;28;20204;-92
2021/08/23 00:47:49;;;;;;;7.68;5.15;;;17.60;99.90;;;;;;5013184;28;20219;-88
2021/08/23 00:50:18;;;;;;;8.48;5.03;;;17.60;99.90;;;;;;5013873;28;20222;-92
2021/08/23 00:52:45;;;;;;;10.40;4.80;;;17.60;99.90;;;;;;5013580;28;20196;-88
2021/08/23 00:55:12;;;;;;;6.82;3.97;;;17.60;99.90;;;;;;5000216;28;20200;-85
2021/08/23 00:57:41;;;;;;;6.38;4.22;;;17.60;99.90;;;;;;4993665;28;20874;-93
2021/08/23 01:00:08;;;;;;;8.85;4.15;;;17.60;99.90;;;;;;4993894;28;20207;-88
2021/08/23 01:02:41;;;;;;;8.45;4.50;;;17.60;99.90;;;;;;4993642;28;20518;-91
2021/08/23 01:05:14;;;;;;;6.72;4.18;;;17.60;99.90;;;;;;4994292;28;20212;-88
2021/08/23 01:07:49;;;;;;;14.10;5.10;;;17.70;99.90;;;;;;4990170;28;20223;-87
2021/08/23 01:10:20;;;;;;;8.13;3.83;;;17.70;99.90;;;;;;4992474;28;20214;-94
2021/08/23 01:12:47;;;;;;;8.50;4.43;;;17.70;99.90;;;;;;4993536;28;20316;-93
2021/08/23 01:15:14;;;;;;;8.30;3.95;;;17.70;99.90;;;;;;4992659;28;20215;-91
2021/08/23 01:17:41;;;;;;;11.07;4.30;;;17.70;99.90;;;;;;4993922;28;20211;-86
2021/08/23 01:20:11;;;;;;;9.35;4.65;;;17.60;99.90;;;;;;4993880;28;20211;-90
2021/08/23 01:22:42;;;;;;;6.85;3.72;;;17.70;99.90;;;;;;4993255;28;20222;-96
2021/08/23 01:25:11;;;;;;;8.32;4.30;;;17.60;99.90;;;;;;4993459;28;20262;-90
2021/08/23 01:27:39;;;;;;;5.97;4.10;;;17.60;99.90;;;;;;4993722;28;20224;-86
2021/08/23 01:30:09;;;;;;;7.47;3.95;;;17.70;99.90;;;;;;4993126;28;20227;-89
2021/08/23 01:32:39;;;;;;;5.50;3.63;;;17.60;99.90;;;;;;4992283;28;20195;-87
2021/08/23 01:35:08;;;;;;;6.90;3.80;;;17.60;99.90;;;;;;4993178;28;20713;-87
2021/08/23 01:37:36;;;;;;;6.20;3.53;;;17.60;99.90;;;;;;4997969;28;20208;-80
2021/08/23 01:40:03;;;;;;;9.05;4.15;;;17.50;99.90;;;;;;4993526;28;20208;-90
2021/08/23 01:42:31;;;;;;;7.50;4.07;;;17.50;99.90;;;;;;5013109;28;20206;-86
2021/08/23 01:44:58;;;;;;;7.20;3.28;;;17.50;99.90;;;;;;5011486;28;20196;-84
2021/08/23 01:47:25;;;;;;;6.22;3.30;;;17.50;99.90;;;;;;5012788;28;20220;-93
2021/08/23 01:49:53;;;;;;;7.35;3.90;;;17.50;99.90;;;;;;5012369;28;20268;-85
2021/08/23 01:52:20;;;;;;;6.80;3.65;;;17.60;99.90;;;;;;5011896;28;20581;-87
2021/08/23 01:54:47;;;;;;;12.48;4.10;;;17.60;99.90;;;;;;5011738;28;20569;-88
2021/08/23 01:57:15;;;;;;;7.25;3.40;;;17.60;99.90;;;;;;5008479;28;20211;-88
2021/08/23 01:59:42;;;;;;;5.50;3.60;;;17.60;99.90;;;;;;4993022;28;20238;-87
2021/08/23 02:02:09;;;;;;;5.30;3.35;;;17.60;99.90;;;;;;4992538;28;20200;-86
2021/08/23 02:04:36;;;;;;;7.30;3.85;;;17.50;99.90;;;;;;4992182;28;20223;-84
2021/08/23 02:07:04;;;;;;;6.10;3.17;;;17.50;99.90;;;;;;4996256;28;20207;-89
2021/08/23 02:09:31;;;;;;;6.45;3.13;;;17.50;99.90;;;;;;5012096;28;20202;-88
2021/08/23 02:11:58;;;;;;;6.97;3.13;;;17.50;99.90;;;;;;5010208;28;20527;-85
2021/08/23 02:14:24;;;;;;;5.68;3.28;;;17.50;99.90;;;;;;4992798;28;20199;-89
2021/08/23 02:16:57;;;;;;;9.57;3.30;;;17.40;99.90;;;;;;5001896;23;20189;-81
2021/08/23 02:19:24;;;;;;;5.47;2.80;;;17.50;99.90;;;;;;5011449;28;20207;-84
2021/08/23 02:21:53;;;;;;;8.23;2.90;;;17.40;99.90;;;;;;5005930;28;20203;-89
2021/08/23 02:24:23;;;;;;;5.05;3.33;;;17.40;99.90;;;;;;4988979;28;20203;-85
2021/08/23 02:26:50;;;;;;;8.13;3.80;;;17.40;99.90;;;;;;4991762;28;20627;-86
2021/08/23 02:29:17;;;;;;;6.43;2.72;;;17.40;99.90;;;;;;4992667;28;20231;-89
2021/08/23 02:31:44;;;;;;;6.57;3.13;;;17.40;99.90;;;;;;4993971;28;20759;-88
2021/08/23 02:34:11;;;;;;;7.25;3.08;;;17.40;99.90;;;;;;4993983;28;20228;-87
2021/08/23 02:36:38;;;;;;;8.40;3.17;;;17.40;99.90;;;;;;4992668;28;20211;-88
2021/08/23 02:39:05;;;;;;;6.10;3.20;;;17.40;99.90;;;;;;4992993;28;20204;-88
2021/08/23 02:41:33;;;;;;;5.72;2.88;;;17.30;99.90;;;;;;4993635;28;20208;-88
2021/08/23 02:44:00;;;;;;;5.07;2.75;;;17.30;99.90;;;;;;4992456;28;20207;-88
2021/08/23 02:46:27;;;;;;;5.78;2.42;;;17.30;99.90;;;;;;4991704;28;20552;-90
2021/08/23 02:48:54;;;;;;;8.20;3.25;;;17.30;99.90;;;;;;4991796;28;20232;-85
2021/08/23 02:51:21;;;;;;;8.30;3.00;;;17.30;99.90;;;;;;4992294;28;20208;-90
2021/08/23 02:53:48;;;;;;;8.30;3.25;;;17.30;99.90;;;;;;4991827;28;20208;-86
2021/08/23 02:56:14;;;;;;;6.63;2.92;;;17.30;99.90;;;;;;5006132;28;20207;-84
2021/08/23 02:58:42;;;;;;;8.82;3.55;;;17.30;99.90;;;;;;5009551;28;20211;-87
2021/08/23 03:01:09;;;;;;;8.38;3.00;;;17.20;99.90;;;;;;5010907;28;20207;-85
2021/08/23 03:03:36;;;;;;;6.78;2.97;;;17.20;99.90;;;;;;5012746;28;20230;-88
2021/08/23 03:06:03;;;;;;;5.78;3.13;;;17.20;99.90;;;;;;5013583;28;20266;-88
2021/08/23 03:08:30;;;;;;;7.25;3.45;;;17.20;99.90;;;;;;5012790;28;20227;-85
2021/08/23 03:11:06;;;;;;;5.85;2.90;;;17.20;99.90;;;;;;5011872;28;20207;-88
2021/08/23 03:13:33;;;;;;;6.63;2.80;;;17.20;99.90;;;;;;5012361;28;20206;-84
2021/08/23 03:16:01;;;;;;;5.70;3.20;;;17.20;99.90;;;;;;5010692;28;20211;-90
2021/08/23 03:18:28;;;;;;;4.18;2.50;;;17.20;99.90;;;;;;5010490;28;20639;-89
2021/08/23 03:20:55;;;;;;;4.93;2.78;;;17.20;99.90;;;;;;5002463;28;20211;-88
2021/08/23 03:23:22;;;;;;;5.80;2.83;;;17.20;99.90;;;;;;4991052;28;20507;-90
2021/08/23 03:25:49;;;;;;;11.02;3.38;;;17.20;99.90;;;;;;4990559;28;20580;-84
2021/08/23 03:28:16;;;;;;;13.65;3.53;;;17.20;99.90;;;;;;4990665;28;20231;-86
2021/08/23 03:30:43;;;;;;;6.63;3.40;;;17.20;99.90;;;;;;4991025;28;20204;-86
2021/08/23 03:33:12;;;;;;;5.43;2.75;;;17.20;99.90;;;;;;4991087;28;20204;-87
2021/08/23 03:35:38;;;;;;;5.65;2.47;;;17.20;99.90;;;;;;4990005;28;20231;-87
2021/08/23 03:38:05;;;;;;;7.45;2.80;;;17.20;99.90;;;;;;4989631;28;20200;-83
2021/08/23 03:40:32;;;;;;;7.07;3.20;;;17.30;99.90;;;;;;4990427;28;20192;-88
2021/08/23 03:42:59;;;;;;;8.70;3.22;;;17.30;99.90;;;;;;4990334;28;20215;-90
2021/08/23 03:45:26;;;;;;;5.85;3.17;;;17.30;99.90;;;;;;5010169;28;20214;-87
2021/08/23 03:47:53;;;;;;;5.93;2.90;;;17.30;99.90;;;;;;5010301;28;20227;-82
2021/08/23 03:50:21;;;;;;;6.07;2.72;;;17.40;99.90;;;;;;5006522;28;20219;-88
2021/08/23 03:52:48;;;;;;;4.65;2.67;;;17.40;99.90;;;;;;4990131;28;20223;-88
2021/08/23 03:55:15;;;;;;;8.60;3.30;;;17.40;99.90;;;;;;4993584;28;20530;-88
2021/08/23 03:57:42;;;;;;;5.90;3.35;;;17.40;99.90;;;;;;4993714;28;20779;-81
2021/08/23 04:00:10;;;;;;;5.22;2.80;;;17.40;99.90;;;;;;4994626;28;20596;-88
2021/08/23 04:02:39;;;;;;;7.20;3.35;;;17.40;99.90;;;;;;4993423;28;20211;-89
2021/08/23 04:05:07;;;;;;;6.13;3.00;;;17.40;99.90;;;;;;4993922;28;20631;-91
2021/08/23 04:07:35;;;;;;;3.92;2.88;;;17.40;99.90;;;;;;4994221;28;20208;-86
2021/08/23 04:10:02;;;;;;;5.55;3.10;;;17.40;99.90;;;;;;4993977;28;20211;-87
2021/08/23 04:12:29;;;;;;;5.35;2.97;;;17.40;99.90;;;;;;4993628;28;20869;-86
2021/08/23 04:14:56;;;;;;;7.30;3.25;;;17.40;99.90;;;;;;4993181;28;20216;-88
2021/08/23 04:17:22;;;;;;;8.88;3.70;;;17.40;99.90;;;;;;4993459;28;20243;-91
2021/08/23 04:19:49;;;;;;;5.47;3.58;;;17.40;99.90;;;;;;4993605;28;20906;-93
2021/08/23 04:22:16;;;;;;;11.15;3.70;;;17.50;99.90;;;;;;4993822;28;20215;-86
2021/08/23 04:24:44;;;;;;;6.97;3.55;;;17.50;99.90;;;;;;4994129;28;20211;-88
2021/08/23 04:27:11;;;;;;;5.47;3.38;;;17.50;99.90;;;;;;5006932;28;20226;-89
2021/08/23 04:29:38;;;;;;;4.90;3.42;;;17.60;99.90;;;;;;5002128;28;20220;-89
2021/08/23 04:32:06;;;;;;;7.20;3.92;;;17.50;99.90;;;;;;5004123;23;20569;-86
2021/08/23 04:34:32;;;;;;;6.13;3.45;;;17.50;99.90;;;;;;4993886;28;20204;-84
2021/08/23 04:37:03;;;;;;;9.38;3.35;;;17.50;99.90;;;;;;4991771;28;20211;-82
2021/08/23 04:39:30;;;;;;;9.13;3.63;;;17.50;99.90;;;;;;5015452;22;20242;-87
2021/08/23 04:41:58;;;;;;;6.65;3.83;;;17.50;99.90;;;;;;5012697;28;20375;-85
2021/08/23 04:44:25;;;;;;;8.35;3.90;;;17.50;99.90;;;;;;5006940;28;20219;-87
2021/08/23 04:46:52;;;;;;;5.38;3.33;;;17.50;99.90;;;;;;4989118;28;20203;-86
2021/08/23 04:49:20;;;;;;;8.45;3.72;;;17.50;99.90;;;;;;4990256;28;20274;-92
2021/08/23 04:51:46;;;;;;;8.73;4.20;;;17.50;99.90;;;;;;4990109;28;20210;-92
2021/08/23 04:54:13;;;;;;;9.90;3.90;;;17.50;99.90;;;;;;4990193;28;20670;-88
2021/08/23 04:56:40;;;;;;;12.02;4.22;;;17.50;99.90;;;;;;4990595;28;20232;-85
2021/08/23 04:59:08;;;;;;;8.55;4.47;;;17.50;99.90;;;;;;4990501;28;20211;-87
2021/08/23 05:01:35;;;;;;;7.72;4.30;;;17.50;99.90;;;;;;4990725;28;20196;-92
2021/08/23 05:04:01;;;;;;;8.40;4.20;;;17.50;99.90;;;;;;4992197;28;20648;-88
2021/08/23 05:06:28;;;;;;;8.65;4.00;;;17.50;99.90;;;;;;4991492;28;20215;-86
2021/08/23 05:08:55;;;;;;;6.10;3.90;;;17.50;99.90;;;;;;4990687;28;20663;-84
2021/08/23 05:11:22;;;;;;;9.85;4.75;;;17.50;99.90;;;;;;4991531;28;20207;-92
2021/08/23 05:13:49;;;;;;;8.93;4.55;;;17.50;99.90;;;;;;4991926;28;20215;-89
2021/08/23 05:16:17;;;;;;;6.30;4.25;;;17.50;99.90;;;;;;4992131;28;20725;-86
2021/08/23 05:18:44;;;;;;;5.60;4.10;;;17.40;99.90;;;;;;4992229;28;20218;-82
2021/08/23 05:21:10;;;;;;;7.13;4.05;;;17.40;99.90;;;;;;4993445;28;20215;-88
2021/08/23 05:23:37;;;;;;;10.50;4.53;;;17.40;99.90;;;;;;5005017;28;20223;-96
2021/08/23 05:26:07;;;;;;;8.65;4.45;;;17.40;99.90;;;;;;5013385;28;20210;-93
2021/08/23 05:28:34;;;;;;;7.22;3.67;;;17.40;99.90;;;;;;5013039;28;20227;-90
2021/08/23 05:31:00;;;;;;;8.93;4.13;;;17.40;99.90;;;;;;5011747;28;20211;-91
2021/08/23 05:33:28;;;;;;;7.75;4.47;;;17.40;99.90;;;;;;5013024;28;20211;-87
2021/08/23 05:35:55;;;;;;;6.05;3.85;;;17.40;99.90;;;;;;5011627;28;20207;-85
2021/08/23 05:38:22;;;;;;;10.00;4.45;;;17.40;99.90;;;;;;5012073;28;20266;-86
2021/08/23 05:40:49;;;;;;;6.65;4.43;;;17.50;99.90;;;;;;5011532;28;20211;-88
2021/08/23 05:43:16;;;;;;;12.80;4.72;;;17.50;99.90;;;;;;5012231;28;20253;-91
2021/08/23 05:45:43;;;;;;;9.00;4.25;;;17.50;99.90;;;;;;5012870;28;20214;-86
2021/08/23 05:48:11;;;;;;;11.30;4.63;;;17.50;99.90;;;;;;5013500;28;20207;-93
2021/08/23 05:50:39;;;;;;;12.73;4.63;;;17.50;99.90;;;;;;5012930;28;20398;-90
2021/08/23 05:53:06;;;;;;;7.20;4.38;;;17.50;99.90;;;;;;4994929;28;20222;-92
2021/08/23 05:55:33;;;;;;;8.63;4.45;;;17.50;99.90;;;;;;4997037;28;20207;-90
2021/08/23 05:58:00;;;;;;;10.85;4.65;;;17.50;99.90;;;;;;4993929;28;20203;-88
2021/08/23 06:00:26;;;;;;;8.93;4.82;;;17.60;99.90;;;;;;4992739;28;20482;-88
2021/08/23 06:02:53;;;;;;;9.48;4.80;;;17.60;99.90;;;;;;4992080;28;20204;-84
2021/08/23 06:05:20;;;;;;;9.38;4.50;;;17.60;99.90;;;;;;4992695;28;20207;-89
2021/08/23 06:07:48;;;;;;;9.50;4.88;;;17.70;99.90;;;;;;4992908;28;20292;-89
2021/08/23 06:10:15;;;;;;;8.95;4.70;;;17.70;99.90;;;;;;4991754;28;20668;-85
2021/08/23 06:12:42;;;;;;;10.02;4.82;;;17.70;99.90;;;;;;4991288;28;20212;-88
2021/08/23 06:15:10;;;;;;;10.43;4.82;;;17.70;99.90;;;;;;4992703;28;20215;-82
2021/08/23 06:17:37;;;;;;;9.07;4.75;;;17.80;99.90;;;;;;4992492;28;20593;-90
2021/08/23 06:20:04;;;;;;;7.38;5.10;;;17.80;99.90;;;;;;4991757;28;20204;-87
2021/08/23 06:22:32;;;;;;;9.07;4.15;;;17.80;99.90;;;;;;5007099;28;20208;-87
2021/08/23 06:25:02;;;;;;;9.45;5.25;;;17.80;99.90;;;;;;4994863;28;20231;-92
2021/08/23 06:27:28;;;;;;;13.15;4.50;;;17.90;99.90;;;;;;4992199;28;20242;-90
2021/08/23 06:29:56;;;;;;;18.23;5.07;;;17.90;99.90;;;;;;5002265;28;20231;-83
2021/08/23 06:32:23;;;;;;;10.10;4.70;;;17.90;99.90;;;;;;5010833;28;20286;-92
2021/08/23 06:34:50;;;;;;;12.85;4.65;;;17.90;99.90;;;;;;5010623;28;20225;-93
2021/08/23 06:37:18;;;;;;;11.27;4.80;;;18.00;99.90;;;;;;5012158;28;20204;-94
2021/08/23 06:39:48;;;;;;;9.80;4.68;;;18.00;99.90;;;;;;5011289;28;20227;-86
2021/08/23 06:42:17;;;;;;;10.15;4.10;;;18.10;99.90;;;;;;5010092;28;20206;-88
2021/08/23 06:44:45;;;;;;;9.13;4.32;;;18.00;99.90;;;;;;5011438;28;20580;-92
2021/08/23 06:47:13;;;;;;;11.20;4.30;;;18.10;99.90;;;;;;4992406;28;20203;-91
2021/08/23 06:49:40;;;;;;;11.73;4.80;;;18.10;99.90;;;;;;4991785;28;20228;-90
2021/08/23 06:52:07;;;;;;;9.02;4.55;;;18.10;99.90;;;;;;5000902;28;20211;-84
2021/08/23 06:54:34;;;;;;;8.32;4.32;;;18.10;99.90;;;;;;5010970;28;20213;-91
2021/08/23 06:57:01;;;;;;;7.82;3.92;;;18.10;99.90;;;;;;5010660;28;20199;-90
2021/08/23 06:59:29;;;;;;;9.52;4.10;;;18.10;99.90;;;;;;5010970;28;20203;-90
2021/08/23 07:01:56;;;;;;;8.63;4.10;;;18.20;99.90;;;;;;4992995;28;20216;-90
2021/08/23 07:04:23;;;;;;;9.57;4.22;;;18.20;99.90;;;;;;4992369;28;20228;-94
2021/08/23 07:06:50;;;;;;;11.52;4.57;;;18.20;99.90;;;;;;4991365;28;20601;-91
2021/08/23 07:09:17;;;;;;;7.97;4.00;;;18.30;99.90;;;;;;4993515;28;20606;-86
2021/08/23 07:11:43;;;;;;;11.27;3.83;;;18.30;99.90;;;;;;4992302;28;20204;-83
2021/08/23 07:14:10;;;;;;;11.60;4.90;;;18.40;99.90;;;;;;5010543;28;20207;-90
2021/08/23 07:16:42;;;;;;;13.02;4.15;;;18.40;99.90;;;;;;4988863;28;20214;-90
2021/08/23 07:19:09;;;;;;;8.20;3.80;;;18.50;99.90;;;;;;5013073;28;20196;-93
2021/08/23 07:21:36;;;;;;;11.60;4.05;;;18.50;99.90;;;;;;5006225;28;20216;-91
2021/08/23 07:24:03;;;;;;;9.48;4.05;;;18.60;99.90;;;;;;4993944;28;20229;-93
2021/08/23 07:26:30;;;;;;;10.68;3.85;;;18.60;99.90;;;;;;4994056;28;20402;-94
2021/08/23 07:28:57;;;;;;;6.75;3.60;;;18.60;99.90;;;;;;4994284;28;20232;-90
2021/08/23 07:31:24;;;;;;;8.38;4.05;;;18.70;99.90;;;;;;4998185;28;20214;-95
2021/08/23 07:33:53;;;;;;;9.65;3.65;;;18.70;99.90;;;;;;5002016;28;20576;-85
2021/08/23 07:36:20;;;;;;;5.95;2.83;;;18.70;99.90;;;;;;5016830;28;20199;-93
2021/08/23 07:38:46;;;;;;;9.30;3.35;;;18.70;99.90;;;;;;5015771;28;20627;-92
2021/08/23 07:41:13;;;;;;;9.40;3.13;;;18.80;99.90;;;;;;5017728;28;20209;-91
2021/08/23 07:43:40;;;;;;;6.10;2.95;;;18.80;99.90;;;;;;5016945;28;20196;-93
2021/08/23 07:46:07;;;;;;;4.97;3.33;;;18.80;99.90;;;;;;4999380;28;20659;-89
2021/08/23 07:48:34;;;;;;;5.90;2.97;;;18.80;99.90;;;;;;5002569;28;20196;-93
2021/08/23 07:51:02;;;;;;;6.10;2.78;;;18.80;99.90;;;;;;5012980;28;20204;-91
2021/08/23 07:53:29;;;;;;;4.10;2.80;;;18.90;99.90;;;;;;5001562;28;20216;-93
2021/08/23 07:55:56;;;;;;;5.60;2.80;;;18.90;99.90;;;;;;4996318;28;20207;-85
2021/08/23 07:58:23;;;;;;;6.45;3.03;;;18.90;99.90;;;;;;4995324;28;20212;-93
2021/08/23 08:00:49;;;;;;;6.95;3.13;;;19.00;99.90;;;;;;4996075;28;20214;-90
2021/08/23 08:03:16;;;;;;;3.80;2.60;;;19.10;99.90;;;;;;4993753;28;20286;-96
2021/08/23 08:05:43;;;;;;;6.15;2.78;;;19.20;99.90;;;;;;4992768;28;20212;-89
2021/08/23 08:08:12;;;;;;;5.75;3.15;;;19.30;99.90;;;;;;4993183;28;20204;-88
2021/08/23 08:10:39;;;;;;;5.75;2.60;;;19.40;99.90;;;;;;4993936;28;20445;-91
2021/08/23 08:13:07;;;;;;;3.90;2.50;;;19.60;99.90;;;;;;4995120;28;20222;-95
2021/08/23 08:15:35;;;;;;;4.25;2.70;;;19.70;99.90;;;;;;4995592;28;20211;-90
2021/08/23 08:18:03;;;;;;;4.35;2.50;;;19.80;99.90;;;;;;4995979;28;20215;-94
2021/08/23 08:20:30;;;;;;;3.70;2.35;;;20.10;99.90;;;;;;4995412;28;20486;-91
2021/08/23 08:22:58;;;;;;;4.30;1.95;;;20.40;99.90;;;;;;5008910;28;20208;-89
2021/08/23 08:25:26;;;;;;;7.93;2.40;;;20.90;99.90;;;;;;4998490;28;20606;-91
2021/08/23 08:27:53;;;;;;;5.05;2.30;;;21.30;99.90;;;;;;4997164;28;20200;-94
2021/08/23 08:30:20;;;;;;;3.70;2.20;;;21.60;99.90;;;;;;4996552;28;20232;-95
2021/08/23 08:32:50;;;;;;;5.20;2.13;;;22.00;99.90;;;;;;4995925;28;20196;-92
2021/08/23 08:35:17;;;;;;;4.22;2.20;;;22.20;99.90;;;;;;4997073;28;20223;-85
2021/08/23 08:37:44;;;;;;;4.72;1.70;;;22.50;99.90;;;;;;4994228;28;20214;-86
2021/08/23 08:40:12;;;;;;;8.45;2.50;;;22.70;99.90;;;;;;4994311;28;20564;-89
2021/08/23 08:42:42;;;;;;;4.07;1.80;;;22.90;99.90;;;;;;5000892;28;20218;-92
2021/08/23 08:45:10;;;;;;;5.05;2.08;;;23.00;99.90;;;;;;5014558;28;20239;-84
2021/08/23 08:47:40;;;;;;;2.85;1.67;;;23.10;99.90;;;;;;5014269;28;20192;-94
2021/08/23 08:50:09;;;;;;;4.43;2.13;;;23.20;99.90;;;;;;4996489;28;20231;-93
2021/08/23 08:52:38;;;;;;;5.13;1.70;;;23.40;99.90;;;;;;4995427;28;20196;-94
2021/08/23 08:55:05;;;;;;;3.53;1.40;;;23.70;99.90;;;;;;5011261;28;20210;-95
2021/08/23 08:57:32;;;;;;;3.53;2.10;;;23.80;99.90;;;;;;5021797;22;20234;-92
2021/08/23 09:00:00;;;;;;;4.32;1.50;;;23.80;99.90;;;;;;5005120;28;20212;-85
2021/08/23 09:02:28;;;;;;;1.88;1.30;;;23.80;99.90;;;;;;4993636;28;20253;-86
2021/08/23 09:04:54;;;;;;;5.43;1.67;;;24.00;99.90;;;;;;4994838;28;20243;-86
2021/08/23 09:07:23;;;;;;;3.90;1.40;;;24.10;99.90;;;;;;4994449;28;20242;-91
2021/08/23 09:09:50;;;;;;;3.40;1.58;;;24.30;99.90;;;;;;4995089;28;20236;-90
2021/08/23 09:12:17;;;;;;;4.47;1.67;;;24.40;99.90;;;;;;5014015;28;20226;-89
2021/08/23 09:14:51;;;;;;;5.13;1.60;;;24.10;99.90;;;;;;5013486;28;20222;-96
2021/08/23 09:17:22;;;;;;;5.13;1.70;;;23.80;99.90;;;;;;5014144;28;20306;-92
2021/08/23 09:19:57;;;;;;;2.60;1.40;;;23.50;99.90;;;;;;4998143;28;20216;-92
2021/08/23 09:22:26;;;;;;;2.83;1.70;;;23.30;99.90;;;;;;4993057;28;20226;-92
2021/08/23 09:24:53;;;;;;;3.47;1.50;;;23.30;99.90;;;;;;4998436;28;20215;-89
2021/08/23 09:27:20;;;;;;;4.97;1.80;;;23.20;99.90;;;;;;5013091;28;20226;-91
2021/08/23 09:29:54;;;;;;;3.95;1.42;;;22.80;99.90;;;;;;5013076;28;20552;-90
2021/08/23 09:32:24;;;;;;;2.67;1.42;;;22.60;99.90;;;;;;4998542;28;20298;-95
2021/08/23 09:34:51;;;;;;;5.68;1.45;;;22.50;99.90;;;;;;4993211;28;20215;-91
2021/08/23 09:37:20;;;;;;;3.65;1.48;;;22.40;99.90;;;;;;4991181;28;20223;-88
2021/08/23 09:39:47;;;;;;;2.88;1.70;;;22.20;99.90;;;;;;4990535;28;20212;-90
2021/08/23 09:42:18;;;;;;;3.38;1.70;;;22.20;99.90;;;;;;5007272;28;20226;-90
2021/08/23 09:44:45;;;;;;;2.55;1.85;;;22.00;99.90;;;;;;5010136;28;20211;-87
2021/08/23 09:47:12;;;;;;;2.95;1.60;;;21.90;99.90;;;;;;5010343;28;20223;-94
2021/08/23 09:49:42;;;;;;;4.80;1.50;;;21.70;99.90;;;;;;4997785;28;20228;-90
2021/08/23 09:52:21;;;;;;;2.90;1.42;;;21.60;99.90;;;;;;4990883;28;20258;-94
2021/08/23 09:54:59;;;;;;;3.10;1.48;;;21.80;99.90;;;;;;4993238;28;20204;-92
2021/08/23 09:57:27;;;;;;;4.95;1.92;;;22.20;99.90;;;;;;4993373;28;20249;-92
2021/08/23 09:59:54;;;;;;;3.28;1.73;;;22.80;99.90;;;;;;4993140;28;20515;-91
2021/08/23 10:02:22;;;;;;;4.10;1.30;;;23.20;99.90;;;;;;4994009;28;20887;-94
2021/08/23 10:04:50;;;;;;;3.90;1.60;;;23.60;99.90;;;;;;4993356;28;20220;-91
2021/08/23 10:07:17;;;;;;;3.53;1.70;;;23.70;99.90;;;;;;4993920;28;20226;-91
2021/08/23 10:09:44;;;;;;;2.33;1.48;;;23.90;99.90;;;;;;4992629;28;20223;-90
2021/08/23 10:12:13;;;;;;;3.10;1.52;;;24.10;99.90;;;;;;4994061;28;20779;-90
2021/08/23 10:14:42;;;;;;;2.92;1.55;;;24.10;99.90;;;;;;4995965;28;20200;-91
2021/08/23 10:17:09;;;;;;;4.07;1.42;;;23.90;99.90;;;;;;5010653;28;20234;-87
2021/08/23 10:19:36;;;;;;;2.70;1.52;;;24.00;99.90;;;;;;5011501;28;20195;-88
2021/08/23 10:22:06;;;;;;;3.42;1.60;;;24.10;99.90;;;;;;4998179;28;20493;-88
2021/08/23 10:24:33;;;;;;;4.15;1.63;;;24.10;99.90;;;;;;4991796;28;20220;-86
2021/08/23 10:27:00;;;;;;;3.80;1.67;;;24.00;99.90;;;;;;4992821;28;20215;-86
2021/08/23 10:29:38;;;;;;;2.60;1.60;;;24.20;99.90;;;;;;4992197;28;20200;-90
2021/08/23 10:32:08;;;;;;;2.28;1.50;;;24.10;99.90;;;;;;4992499;28;20573;-82
2021/08/23 10:34:37;;;;;;;2.47;1.52;;;23.60;99.90;;;;;;4992642;28;20546;-90
2021/08/23 10:37:16;;;;;;;2.42;1.67;;;23.40;99.90;;;;;;5003087;28;20226;-86
2021/08/23 10:39:43;;;;;;;2.50;1.48;;;23.10;99.90;;;;;;5008516;28;20269;-86
2021/08/23 10:42:12;;;;;;;5.25;1.70;;;23.00;99.90;;;;;;4992236;28;20710;-86
2021/08/23 10:44:39;;;;;;;4.07;1.88;;;22.70;99.90;;;;;;4991517;28;20212;-83
2021/08/23 10:47:07;;;;;;;3.03;1.73;;;22.80;99.90;;;;;;4990906;28;20208;-84
2021/08/23 10:49:43;;;;;;;3.13;1.67;;;23.10;99.90;;;;;;4991430;28;20215;-95
2021/08/23 10:52:12;;;;;;;2.80;1.50;;;23.50;99.90;;;;;;5007713;28;20215;-85
2021/08/23 10:54:41;;;;;;;5.45;1.90;;;23.80;99.90;;;;;;5010592;28;20257;-88
2021/08/23 10:57:09;;;;;;;2.88;1.80;;;23.80;99.90;;;;;;5000916;28;20240;-84
2021/08/23 10:59:44;;;;;;;3.10;1.95;;;23.90;99.90;;;;;;4991303;28;20501;-83
2021/08/23 11:02:12;;;;;;;2.97;1.90;;;24.00;99.90;;;;;;5006923;28;20207;-86
2021/08/23 11:04:42;;;;;;;5.40;1.63;;;24.30;99.90;;;;;;5010432;28;20296;-83
2021/08/23 11:07:12;;;;;;;4.15;1.70;;;24.60;99.90;;;;;;4995243;28;20223;-91
2021/08/23 11:09:41;;;;;;;3.40;1.80;;;24.40;99.90;;;;;;4993409;28;20204;-89
2021/08/23 11:12:14;;;;;;;2.92;1.70;;;24.30;99.90;;;;;;4993341;28;20238;-92
2021/08/23 11:14:50;;;;;;;3.42;1.80;;;24.50;99.90;;;;;;4992106;28;20258;-95
2021/08/23 11:17:32;;;;;;;2.70;1.50;;;24.50;99.90;;;;;;4992547;28;20214;-91
2021/08/23 11:20:02;;;;;;;1.80;1.40;;;24.50;99.90;;;;;;4992323;28;20266;-90
2021/08/23 11:22:31;;;;;;;5.55;1.52;;;24.90;99.90;;;;;;5006715;23;20328;-90
2021/08/23 11:24:58;;;;;;;2.30;1.45;;;25.20;99.90;;;;;;4996830;28;20215;-88
2021/08/23 11:27:25;;;;;;;3.65;1.73;;;25.10;99.90;;;;;;4991853;28;20199;-88
2021/08/23 11:29:54;;;;;;;4.10;1.85;;;25.20;99.90;;;;;;4991614;28;20211;-90
2021/08/23 11:32:26;;;;;;;3.15;1.50;;;25.40;99.90;;;;;;4992980;28;20208;-93
2021/08/23 11:34:54;;;;;;;3.47;1.60;;;25.50;99.90;;;;;;4990663;28;20262;-92
2021/08/23 11:37:24;;;;;;;4.10;1.80;;;25.60;99.90;;;;;;4999545;28;20518;-92
2021/08/23 11:40:07;;;;;;;5.47;1.83;;;25.70;99.90;;;;;;5009707;28;20600;-93
2021/08/23 11:42:34;;;;;;;2.30;1.50;;;25.60;99.90;;;;;;5010122;28;20203;-91
2021/08/23 11:45:01;;;;;;;3.22;1.20;;;25.80;99.90;;;;;;5010902;28;20199;-89
2021/08/23 11:47:33;;;;;;;4.65;1.65;;;25.80;99.90;;;;;;4990972;28;20216;-93
2021/08/23 11:50:00;;;;;;;3.03;1.58;;;25.80;99.90;;;;;;4990937;28;20211;-91
2021/08/23 11:52:27;;;;;;;3.42;1.42;;;25.90;99.90;;;;;;4990101;28;20208;-90
2021/08/23 11:54:56;;;;;;;2.58;1.48;;;25.90;99.90;;;;;;5000953;28;20353;-88
2021/08/23 11:57:26;;;;;;;1.83;1.20;;;25.50;99.90;;;;;;5010032;28;20207;-91
2021/08/23 11:59:55;;;;;;;4.47;1.48;;;25.50;99.90;;;;;;5010848;28;20203;-90
2021/08/23 12:02:27;;;;;;;3.50;1.65;;;25.60;99.90;;;;;;4991862;28;20200;-89
2021/08/23 12:04:54;;;;;;;5.43;1.67;;;25.70;99.90;;;;;;4991773;28;20227;-88
2021/08/23 12:07:21;;;;;;;2.70;1.55;;;25.70;99.90;;;;;;4991373;28;20211;-92
2021/08/23 12:09:59;;;;;;;2.60;1.50;;;25.70;99.90;;;;;;4987824;28;20502;-90
2021/08/23 12:12:28;;;;;;;2.28;1.10;;;25.60;99.90;;;;;;4988995;28;20238;-88
2021/08/23 12:14:59;;;;;;;3.22;1.63;;;25.60;99.90;;;;;;4991490;28;20538;-91
2021/08/23 12:17:30;;;;;;;4.25;1.20;;;25.70;99.90;;;;;;4995029;28;20207;-92
2021/08/23 12:20:05;;;;;;;1.88;1.40;;;25.70;99.90;;;;;;5000115;28;20240;-86
2021/08/23 12:22:32;;;;;;;3.00;1.33;;;25.70;99.90;;;;;;4995247;28;20239;-86
2021/08/23 12:25:01;;;;;;;3.72;1.27;;;25.50;99.90;;;;;;4997629;28;20207;-86
2021/08/23 12:27:30;;;;;;;3.78;1.70;;;25.50;99.90;;;;;;5014781;28;20199;-89
2021/08/23 12:29:58;;;;;;;4.88;1.40;;;25.40;99.90;;;;;;5014862;28;20207;-88
2021/08/23 12:32:33;;;;;;;4.20;1.73;;;25.30;99.90;;;;;;5009916;28;20224;-85
2021/08/23 12:35:00;;;;;;;2.97;1.60;;;25.50;99.90;;;;;;4995048;28;20262;-90
2021/08/23 12:37:29;;;;;;;15.30;2.38;;;25.60;99.90;;;;;;4994811;28;20195;-86
2021/08/23 12:39:56;;;;;;;3.47;1.83;;;25.50;99.90;;;;;;4993734;28;20243;-94
2021/08/23 12:42:24;;;;;;;3.72;1.52;;;25.50;99.90;;;;;;4995430;28;20207;-88
2021/08/23 12:44:52;;;;;;;4.82;1.75;;;25.50;99.90;;;;;;4992313;28;20620;-86
2021/08/23 12:47:19;;;;;;;3.70;2.13;;;25.30;99.90;;;;;;4999247;28;20509;-86
2021/08/23 12:49:48;;;;;;;3.13;1.55;;;25.20;99.90;;;;;;5012655;28;20211;-87